Time;durP1;ratioP1;P1;durP2;ratioP2;P2;SDS_P1;SDS_P2;PMS_P1;PMS_P2;Temp;Humidity;BMP_temperature;BMP_pressure;BME280_temperature;BME280_humidity;BME280_pressure;Samples;Min_cycle;Max_cycle;Signal;HPM_P1;HPM_P2
2022/10/16 00:01:11;;;;;;;6.70;2.38;;;12.60;99.90;;;;;;4956830;28;20042;-60
2022/10/16 00:03:38;;;;;;;10.93;4.28;;;12.60;99.90;;;;;;4956650;28;20039;-60
2022/10/16 00:06:04;;;;;;;10.70;5.25;;;12.60;99.90;;;;;;4954489;28;20055;-60
2022/10/16 00:08:31;;;;;;;14.52;4.30;;;12.60;99.90;;;;;;4930091;28;20552;-59
2022/10/16 00:11:02;;;;;;;10.15;4.47;;;12.60;99.90;;;;;;4938769;28;20047;-60
2022/10/16 00:13:29;;;;;;;18.80;5.05;;;12.60;99.90;;;;;;4956814;28;20039;-60
2022/10/16 00:15:56;;;;;;;13.30;6.40;;;12.60;99.90;;;;;;4956522;28;20053;-59
2022/10/16 00:18:22;;;;;;;10.32;3.40;;;12.60;99.90;;;;;;4942375;28;20524;-60
2022/10/16 00:20:48;;;;;;;13.32;4.80;;;12.60;99.90;;;;;;4945538;28;20106;-59
2022/10/16 00:23:14;;;;;;;8.63;3.88;;;12.60;99.90;;;;;;4952766;28;20494;-60
2022/10/16 00:25:40;;;;;;;8.60;3.65;;;12.60;99.90;;;;;;4935485;28;20043;-60
2022/10/16 00:28:06;;;;;;;7.82;3.28;;;12.60;99.90;;;;;;4957183;28;20114;-60
2022/10/16 00:30:31;;;;;;;10.88;3.22;;;12.60;99.90;;;;;;4944572;28;20117;-60
2022/10/16 00:32:57;;;;;;;7.97;2.63;;;12.60;99.90;;;;;;4936062;28;20082;-58
2022/10/16 00:35:23;;;;;;;9.40;2.55;;;12.60;99.90;;;;;;4956809;28;20058;-60
2022/10/16 00:37:49;;;;;;;9.20;2.55;;;12.60;99.90;;;;;;4941600;28;20798;-60
2022/10/16 00:40:15;;;;;;;7.55;2.45;;;12.60;99.90;;;;;;4938827;28;20055;-60
2022/10/16 00:42:41;;;;;;;8.10;2.72;;;12.60;99.90;;;;;;4953883;28;20047;-59
2022/10/16 00:45:09;;;;;;;9.27;2.35;;;12.60;99.90;;;;;;4934489;28;20520;-59
2022/10/16 00:47:37;;;;;;;8.13;2.70;;;12.60;99.90;;;;;;4954584;28;20051;-58
2022/10/16 00:50:17;;;;;;;11.43;2.17;;;12.60;99.90;;;;;;4931730;28;20050;-59
2022/10/16 00:52:47;;;;;;;7.05;2.20;;;12.60;99.90;;;;;;4957240;28;20047;-60
2022/10/16 00:55:14;;;;;;;9.15;1.92;;;12.60;99.90;;;;;;4937819;28;20062;-59
2022/10/16 00:57:41;;;;;;;8.20;2.20;;;12.60;99.90;;;;;;4955994;28;20498;-60
2022/10/16 01:00:10;;;;;;;8.07;2.45;;;12.70;99.90;;;;;;4938568;28;20047;-60
2022/10/16 01:02:36;;;;;;;9.63;2.35;;;12.70;99.90;;;;;;4954350;28;20401;-60
2022/10/16 01:05:04;;;;;;;10.57;2.20;;;12.70;99.90;;;;;;4956175;28;20047;-60
2022/10/16 01:07:57;;;;;;;6.60;2.13;;;12.70;99.90;;;;;;4954162;28;20418;-60
2022/10/16 01:10:37;;;;;;;;;;;12.70;99.90;;;;;;4958297;28;20386;-60
2022/10/16 01:13:03;;;;;;;5.70;1.80;;;12.70;99.90;;;;;;4953304;28;19918;-59
2022/10/16 01:15:47;;;;;;;8.30;2.58;;;12.70;99.90;;;;;;4953606;28;20050;-59
2022/10/16 01:18:49;;;;;;;6.88;2.50;;;12.70;99.90;;;;;;4952907;28;21902;-60
2022/10/16 01:21:31;;;;;;;8.02;2.00;;;12.70;99.90;;;;;;4956961;28;20109;-59
2022/10/16 01:24:42;;;;;;;5.65;2.92;;;12.70;99.90;;;;;;4956155;28;20034;-60
2022/10/16 01:27:30;;;;;;;5.50;2.08;;;12.70;99.90;;;;;;4935574;28;20150;-59
2022/10/16 01:30:07;;;;;;;9.52;2.78;;;12.70;99.90;;;;;;4935341;28;20138;-60
2022/10/16 01:32:57;;;;;;;5.25;1.77;;;12.70;99.90;;;;;;4955665;28;20102;-60
2022/10/16 01:35:26;;;;;;;9.05;2.05;;;12.70;99.90;;;;;;4934619;28;20062;-59
2022/10/16 01:38:26;;;;;;;7.43;1.80;;;12.70;99.90;;;;;;4955618;28;20040;-60
2022/10/16 01:41:04;;;;;;;6.47;1.60;;;12.70;99.90;;;;;;4954028;28;20125;-59
2022/10/16 01:43:45;;;;;;;4.03;1.65;;;12.70;99.90;;;;;;4954891;28;20038;-59
2022/10/16 01:46:15;;;;;;;6.80;1.80;;;12.80;99.90;;;;;;4954136;28;20486;-60
2022/10/16 01:48:41;;;;;;;7.20;2.72;;;12.70;99.90;;;;;;4953175;28;20820;-60
2022/10/16 01:51:10;;;;;;;6.40;2.00;;;12.80;99.90;;;;;;4953055;28;20046;-60
2022/10/16 01:53:37;;;;;;;6.95;2.33;;;12.80;99.90;;;;;;4952923;28;20078;-59
2022/10/16 01:56:06;;;;;;;5.07;2.70;;;12.70;99.90;;;;;;4934663;28;20050;-59
2022/10/16 01:58:37;;;;;;;12.15;5.32;;;12.80;99.90;;;;;;4945791;28;20050;-59
2022/10/16 02:01:07;;;;;;;9.32;3.20;;;12.80;99.90;;;;;;4951867;28;20051;-60
2022/10/16 02:03:36;;;;;;;8.57;3.70;;;12.80;99.90;;;;;;4950273;28;20493;-59
2022/10/16 02:06:02;;;;;;;7.03;2.47;;;12.80;99.90;;;;;;4933905;28;20115;-60
2022/10/16 02:08:29;;;;;;;7.28;1.90;;;12.80;99.90;;;;;;4955494;28;20050;-59
2022/10/16 02:10:57;;;;;;;8.02;2.50;;;12.80;99.90;;;;;;4952720;28;20502;-60
2022/10/16 02:13:35;;;;;;;7.72;2.10;;;12.80;99.90;;;;;;4952860;28;20043;-60
2022/10/16 02:16:01;;;;;;;4.55;2.03;;;12.80;99.90;;;;;;4954447;28;20062;-60
2022/10/16 02:18:30;;;;;;;5.93;1.67;;;12.90;99.90;;;;;;4950185;28;20508;-60
2022/10/16 02:21:06;;;;;;;6.43;2.47;;;12.90;99.90;;;;;;4953327;28;20093;-60
2022/10/16 02:23:59;;;;;;;8.27;2.50;;;12.90;99.90;;;;;;4953640;28;20505;-60
2022/10/16 02:26:49;;;;;;;7.43;2.80;;;12.90;99.90;;;;;;4935833;28;20055;-60
2022/10/16 02:29:19;;;;;;;9.07;3.40;;;12.90;99.90;;;;;;4949876;28;20125;-60
2022/10/16 02:31:49;;;;;;;8.35;3.03;;;12.90;99.90;;;;;;4951459;28;20046;-60
2022/10/16 02:34:16;;;;;;;5.78;2.67;;;12.90;99.90;;;;;;4948555;28;20055;-60
2022/10/16 02:36:44;;;;;;;6.32;2.78;;;12.90;99.90;;;;;;4951335;28;20073;-60
2022/10/16 02:39:11;;;;;;;5.55;2.85;;;12.90;99.90;;;;;;4951004;28;20130;-59
2022/10/16 02:41:37;;;;;;;6.20;2.67;;;12.90;99.90;;;;;;4948549;28;20100;-60
2022/10/16 02:44:03;;;;;;;7.25;2.75;;;13.00;99.90;;;;;;4955564;28;20047;-60
2022/10/16 02:46:29;;;;;;;7.15;2.40;;;13.00;99.90;;;;;;4951165;28;20101;-59
2022/10/16 02:48:54;;;;;;;9.07;2.42;;;13.00;99.90;;;;;;4951114;28;20051;-60
2022/10/16 02:51:20;;;;;;;8.07;2.20;;;13.00;99.90;;;;;;4952612;28;21991;-60
2022/10/16 02:53:46;;;;;;;7.72;2.25;;;13.00;99.90;;;;;;4952600;28;20525;-59
2022/10/16 02:56:12;;;;;;;10.18;3.03;;;13.00;99.90;;;;;;4935177;28;20053;-60
2022/10/16 02:58:37;;;;;;;7.35;4.10;;;12.90;99.90;;;;;;4951411;28;20493;-60
2022/10/16 03:01:03;;;;;;;7.68;4.90;;;12.90;99.90;;;;;;4950800;28;20035;-60
2022/10/16 03:03:29;;;;;;;7.43;5.65;;;12.90;99.90;;;;;;4934776;28;20557;-60
2022/10/16 03:05:55;;;;;;;8.10;4.20;;;12.90;99.90;;;;;;4951974;28;20125;-60
2022/10/16 03:08:23;;;;;;;10.90;4.22;;;12.90;99.90;;;;;;4947490;28;20367;-60
2022/10/16 03:10:50;;;;;;;7.65;3.70;;;12.90;99.90;;;;;;4937825;28;20046;-60
2022/10/16 03:13:15;;;;;;;10.32;5.53;;;12.90;99.90;;;;;;4951143;28;20106;-60
2022/10/16 03:15:41;;;;;;;9.63;4.30;;;12.90;99.90;;;;;;4938580;28;20058;-60
2022/10/16 03:18:07;;;;;;;9.23;4.20;;;12.90;99.90;;;;;;4948881;28;21864;-60
2022/10/16 03:20:33;;;;;;;13.52;4.85;;;12.90;99.90;;;;;;4950700;28;20784;-60
2022/10/16 03:22:59;;;;;;;6.63;5.00;;;12.90;99.90;;;;;;4917856;28;20050;-60
2022/10/16 03:25:24;;;;;;;7.10;3.65;;;13.00;99.90;;;;;;4953330;28;20165;-60
2022/10/16 03:27:50;;;;;;;10.95;3.58;;;12.90;99.90;;;;;;4946744;28;21208;-60
2022/10/16 03:30:16;;;;;;;4.20;2.60;;;12.90;99.90;;;;;;4950933;28;20513;-60
2022/10/16 03:32:44;;;;;;;6.45;2.40;;;12.90;99.90;;;;;;4950420;28;20438;-60
2022/10/16 03:35:10;;;;;;;9.88;2.58;;;12.90;99.90;;;;;;4951573;28;20105;-60
2022/10/16 03:37:36;;;;;;;5.13;2.95;;;12.90;99.90;;;;;;4932944;28;20056;-60
2022/10/16 03:40:03;;;;;;;9.63;4.70;;;13.00;99.90;;;;;;4932330;28;20042;-60
2022/10/16 03:42:29;;;;;;;9.23;5.22;;;13.00;99.90;;;;;;4948102;28;20039;-60
2022/10/16 03:44:55;;;;;;;6.38;2.55;;;13.00;99.90;;;;;;4952453;28;20051;-60
2022/10/16 03:47:23;;;;;;;6.05;1.95;;;13.00;99.90;;;;;;4949694;28;20122;-60
2022/10/16 03:49:49;;;;;;;4.13;1.70;;;12.90;99.90;;;;;;4932559;28;20085;-60
2022/10/16 03:58:38;;;;;;;3.40;1.50;;;12.90;99.90;;;;;;4944225;28;20133;-59
2022/10/16 04:01:04;;;;;;;5.65;1.77;;;12.90;99.90;;;;;;4948937;28;20551;-59
2022/10/16 04:03:30;;;;;;;4.25;1.67;;;12.90;99.90;;;;;;4952672;28;20481;-59
2022/10/16 04:05:56;;;;;;;4.40;2.08;;;12.90;99.90;;;;;;4950463;28;20178;-59
2022/10/16 04:08:22;;;;;;;4.15;1.88;;;12.90;99.90;;;;;;4965390;28;20176;-59
2022/10/16 04:10:48;;;;;;;4.53;1.83;;;12.80;99.90;;;;;;4952284;28;20059;-60
2022/10/16 04:13:14;;;;;;;6.20;1.83;;;12.80;99.90;;;;;;4951061;28;20051;-59
2022/10/16 04:15:40;;;;;;;4.50;1.80;;;12.80;99.90;;;;;;4963232;28;20050;-60
2022/10/16 04:18:06;;;;;;;5.40;2.28;;;12.70;99.90;;;;;;4947826;28;20057;-60
2022/10/16 04:20:33;;;;;;;9.73;2.40;;;12.70;99.90;;;;;;4950287;28;20086;-59
2022/10/16 04:22:59;;;;;;;4.45;2.30;;;12.70;99.90;;;;;;4950370;28;20039;-59
2022/10/16 04:25:25;;;;;;;6.72;2.20;;;12.70;99.90;;;;;;4952401;28;20046;-59
2022/10/16 04:27:53;;;;;;;7.53;2.72;;;12.70;99.90;;;;;;4950139;28;20062;-60
2022/10/16 04:30:19;;;;;;;7.07;2.35;;;12.70;99.90;;;;;;4962714;28;20409;-59
2022/10/16 04:32:52;;;;;;;7.40;4.25;;;12.70;99.90;;;;;;4951945;28;20571;-59
2022/10/16 04:35:19;;;;;;;7.55;6.35;;;12.70;99.90;;;;;;4946438;28;20054;-59
2022/10/16 04:37:45;;;;;;;7.75;4.43;;;12.70;99.90;;;;;;4951163;28;20055;-60
2022/10/16 04:40:11;;;;;;;9.48;6.00;;;12.60;99.90;;;;;;4948662;28;20075;-59
2022/10/16 04:42:37;;;;;;;11.25;7.43;;;12.60;99.90;;;;;;4953464;28;20035;-60
2022/10/16 04:45:05;;;;;;;11.18;6.10;;;12.60;99.90;;;;;;4951752;28;20409;-57
2022/10/16 04:47:30;;;;;;;9.73;6.45;;;12.70;99.90;;;;;;4954294;28;20046;-59
2022/10/16 04:49:56;;;;;;;11.27;5.53;;;12.70;99.90;;;;;;4949680;28;20090;-59
2022/10/16 04:52:24;;;;;;;7.57;4.50;;;12.70;99.90;;;;;;4946750;28;20121;-60
2022/10/16 04:54:50;;;;;;;6.70;3.45;;;12.70;99.90;;;;;;4952900;28;20382;-59
2022/10/16 04:57:16;;;;;;;5.82;4.00;;;12.70;99.90;;;;;;4951594;28;20420;-59
2022/10/16 04:59:42;;;;;;;7.60;5.18;;;12.70;99.90;;;;;;4954772;28;20051;-59
2022/10/16 05:02:08;;;;;;;12.70;7.13;;;12.70;99.90;;;;;;4947310;28;20101;-58
2022/10/16 05:04:34;;;;;;;11.88;5.50;;;12.80;99.90;;;;;;4948796;28;20042;-59
2022/10/16 05:07:00;;;;;;;7.68;4.90;;;12.80;99.90;;;;;;4950090;28;20941;-59
2022/10/16 05:09:25;;;;;;;5.32;3.13;;;12.80;99.90;;;;;;4953180;28;20042;-59
2022/10/16 05:11:51;;;;;;;12.15;5.47;;;12.80;99.90;;;;;;4954844;28;20050;-59
2022/10/16 05:14:17;;;;;;;8.98;5.88;;;12.80;99.90;;;;;;4953030;28;20145;-60
2022/10/16 05:16:43;;;;;;;9.48;5.65;;;12.80;99.90;;;;;;4954318;28;20059;-60
2022/10/16 05:19:08;;;;;;;7.53;5.65;;;12.80;99.90;;;;;;4955735;28;20125;-59
2022/10/16 05:21:34;;;;;;;8.07;4.68;;;12.80;99.90;;;;;;4954981;28;20117;-59
2022/10/16 05:24:00;;;;;;;7.97;4.60;;;12.80;99.90;;;;;;4955568;28;20039;-59
2022/10/16 05:26:26;;;;;;;7.57;4.05;;;12.80;99.90;;;;;;4953905;28;20054;-59
2022/10/16 05:28:51;;;;;;;5.97;3.83;;;12.90;99.90;;;;;;4956909;28;20047;-59
2022/10/16 05:31:17;;;;;;;6.20;2.05;;;12.80;99.90;;;;;;4952177;28;20069;-59
2022/10/16 05:33:43;;;;;;;7.82;2.22;;;12.80;99.90;;;;;;4954271;28;20053;-59
2022/10/16 05:36:10;;;;;;;6.00;2.45;;;12.80;99.90;;;;;;4955985;28;20118;-59
2022/10/16 05:38:36;;;;;;;6.78;2.33;;;12.80;99.90;;;;;;4967962;28;20048;-59
2022/10/16 05:41:03;;;;;;;6.88;2.50;;;12.80;99.90;;;;;;4955663;28;20087;-60
2022/10/16 05:43:30;;;;;;;5.40;2.53;;;12.80;99.90;;;;;;4959588;28;20047;-59
2022/10/16 05:46:03;;;;;;;6.85;2.35;;;12.80;99.90;;;;;;4953239;28;20058;-59
2022/10/16 05:48:28;;;;;;;;;;;12.80;99.90;;;;;;4955267;28;20043;-59
2022/10/16 05:51:09;;;;;;;6.00;2.47;;;12.80;99.90;;;;;;4952524;28;19922;-60
2022/10/16 05:53:35;;;;;;;7.43;2.70;;;12.80;99.90;;;;;;4954111;28;20051;-59
2022/10/16 05:56:02;;;;;;;6.25;2.20;;;12.80;99.90;;;;;;4954208;28;20133;-59
2022/10/16 05:58:35;;;;;;;5.18;2.70;;;12.80;99.90;;;;;;4953406;28;20055;-59
2022/10/16 06:01:06;;;;;;;7.13;2.55;;;12.80;99.90;;;;;;4956192;28;20074;-59
2022/10/16 06:03:33;;;;;;;5.43;2.83;;;12.80;99.90;;;;;;4952490;28;20909;-59
2022/10/16 06:06:06;;;;;;;5.95;2.85;;;12.70;99.90;;;;;;4950279;28;20356;-58
2022/10/16 06:08:32;;;;;;;8.80;2.63;;;12.70;99.90;;;;;;4953115;28;20146;-59
2022/10/16 06:11:06;;;;;;;5.07;2.65;;;12.80;99.90;;;;;;4954161;28;20043;-60
2022/10/16 06:13:32;;;;;;;7.20;3.97;;;12.80;99.90;;;;;;4951797;28;20050;-59
2022/10/16 06:15:59;;;;;;;8.52;4.03;;;12.70;99.90;;;;;;4952825;28;20046;-59
2022/10/16 06:18:26;;;;;;;6.00;3.13;;;12.70;99.90;;;;;;4953187;28;20043;-59
2022/10/16 06:20:53;;;;;;;9.57;3.80;;;12.70;99.90;;;;;;4952837;28;20079;-59
2022/10/16 06:23:18;;;;;;;7.97;3.33;;;12.80;99.90;;;;;;4951877;28;20051;-59
2022/10/16 06:25:44;;;;;;;4.80;3.30;;;12.80;99.90;;;;;;4952081;28;20062;-60
2022/10/16 06:28:10;;;;;;;8.85;3.85;;;12.80;99.90;;;;;;4953905;28;20532;-59
2022/10/16 06:30:36;;;;;;;6.70;2.80;;;12.80;99.90;;;;;;4954200;28;20054;-59
2022/10/16 06:33:01;;;;;;;5.30;2.97;;;12.80;99.90;;;;;;4951462;28;20051;-59
2022/10/16 06:35:29;;;;;;;11.48;4.35;;;12.80;99.90;;;;;;4954266;28;20062;-59
2022/10/16 06:37:54;;;;;;;6.80;3.53;;;12.80;99.90;;;;;;4955003;28;20082;-59
2022/10/16 06:40:20;;;;;;;14.65;3.60;;;12.90;99.90;;;;;;4959431;28;20600;-59
2022/10/16 06:42:46;;;;;;;8.02;3.40;;;12.90;99.90;;;;;;4956701;28;20070;-59
2022/10/16 06:45:12;;;;;;;10.18;3.75;;;12.90;99.90;;;;;;4953561;28;20051;-59
2022/10/16 06:47:38;;;;;;;9.13;5.30;;;12.90;99.90;;;;;;4952197;28;20201;-59
2022/10/16 06:50:06;;;;;;;11.88;6.90;;;12.90;99.90;;;;;;4951873;28;20085;-59
2022/10/16 06:52:33;;;;;;;11.70;7.13;;;12.90;99.90;;;;;;4952281;28;20058;-59
2022/10/16 06:54:59;;;;;;;11.73;6.07;;;12.90;99.90;;;;;;4952000;28;20112;-60
2022/10/16 06:57:25;;;;;;;12.05;6.20;;;12.90;99.90;;;;;;4952692;28;20779;-60
2022/10/16 06:59:50;;;;;;;11.32;6.32;;;13.00;99.90;;;;;;4951362;28;20047;-60
2022/10/16 07:02:16;;;;;;;10.20;4.35;;;13.00;99.90;;;;;;4948850;28;20078;-59
2022/10/16 07:04:42;;;;;;;12.00;7.47;;;13.00;99.90;;;;;;4949446;28;20461;-59
2022/10/16 07:07:08;;;;;;;10.32;6.93;;;13.00;99.90;;;;;;4952673;28;20086;-59
2022/10/16 07:09:34;;;;;;;7.75;5.35;;;13.10;99.90;;;;;;4960058;28;20053;-59
2022/10/16 07:11:59;;;;;;;9.98;4.88;;;13.10;99.90;;;;;;4951783;28;20106;-59
2022/10/16 07:14:25;;;;;;;9.63;5.63;;;13.10;99.90;;;;;;4951954;28;20081;-59
2022/10/16 07:16:51;;;;;;;12.02;7.65;;;13.10;99.90;;;;;;4951190;28;20054;-59
2022/10/16 07:19:17;;;;;;;9.68;4.80;;;13.10;99.90;;;;;;4951041;28;20055;-58
2022/10/16 07:21:44;;;;;;;8.25;5.80;;;13.20;99.90;;;;;;4951972;28;20122;-58
2022/10/16 07:24:16;;;;;;;10.48;3.85;;;13.20;99.90;;;;;;4954644;28;20043;-58
2022/10/16 07:26:44;;;;;;;5.90;2.88;;;13.30;99.90;;;;;;4951525;28;20611;-59
2022/10/16 07:29:16;;;;;;;9.35;4.13;;;13.30;99.90;;;;;;4951150;28;20043;-58
2022/10/16 07:31:43;;;;;;;5.60;2.42;;;13.30;99.90;;;;;;4942579;28;20105;-58
2022/10/16 07:34:09;;;;;;;9.27;2.00;;;13.30;99.90;;;;;;4965022;28;20102;-59
2022/10/16 07:36:35;;;;;;;5.72;2.55;;;13.30;99.90;;;;;;4952806;28;20043;-59
2022/10/16 07:39:01;;;;;;;8.10;2.65;;;13.30;99.90;;;;;;4950994;28;20043;-58
2022/10/16 07:41:27;;;;;;;8.88;2.70;;;13.40;99.90;;;;;;4951587;28;20046;-59
2022/10/16 07:43:54;;;;;;;6.60;4.22;;;13.40;99.90;;;;;;4951568;28;20039;-58
2022/10/16 07:46:22;;;;;;;9.88;6.50;;;13.30;99.90;;;;;;4952678;28;20125;-59
2022/10/16 07:48:48;;;;;;;10.30;6.30;;;13.30;99.90;;;;;;4952058;28;20039;-59
2022/10/16 07:51:16;;;;;;;6.70;4.32;;;13.30;99.90;;;;;;4949750;28;20511;-59
2022/10/16 07:53:42;;;;;;;9.55;5.43;;;13.40;99.90;;;;;;4948269;28;20616;-59
2022/10/16 07:56:08;;;;;;;8.98;6.63;;;13.30;99.90;;;;;;4944913;28;20051;-59
2022/10/16 07:58:38;;;;;;;11.88;6.57;;;13.40;99.90;;;;;;4958783;28;146452;-57
2022/10/16 08:01:06;;;;;;;8.85;4.47;;;13.40;99.90;;;;;;4952744;28;20050;-59
2022/10/16 08:03:32;;;;;;;9.90;7.07;;;13.30;99.90;;;;;;4953788;28;20050;-58
2022/10/16 08:05:59;;;;;;;11.23;5.63;;;13.30;99.90;;;;;;4954339;28;20618;-59
2022/10/16 08:08:25;;;;;;;7.25;3.75;;;13.30;99.90;;;;;;4953721;28;20421;-59
2022/10/16 08:10:51;;;;;;;8.40;3.78;;;13.30;99.90;;;;;;4950586;28;20055;-58
2022/10/16 08:13:17;;;;;;;12.60;5.88;;;13.30;99.90;;;;;;4951630;28;20055;-59
2022/10/16 08:15:43;;;;;;;9.05;6.00;;;13.40;99.90;;;;;;4951815;28;20051;-59
2022/10/16 08:18:10;;;;;;;11.90;6.20;;;13.40;99.90;;;;;;4953153;28;20366;-60
2022/10/16 08:20:36;;;;;;;14.18;5.60;;;13.60;99.90;;;;;;4963452;28;20034;-59
2022/10/16 08:23:02;;;;;;;15.73;6.68;;;13.70;99.90;;;;;;4953853;28;20055;-59
2022/10/16 08:25:29;;;;;;;8.45;4.57;;;13.80;99.90;;;;;;4957060;28;20046;-59
2022/10/16 08:27:55;;;;;;;5.43;3.20;;;13.90;99.90;;;;;;4955682;28;20121;-59
2022/10/16 08:30:23;;;;;;;10.18;2.60;;;14.10;99.90;;;;;;4957334;28;20079;-59
2022/10/16 08:32:49;;;;;;;4.65;2.70;;;14.30;99.90;;;;;;4958159;28;20047;-58
2022/10/16 08:35:15;;;;;;;5.43;2.47;;;14.50;99.90;;;;;;4957076;28;20446;-60
2022/10/16 08:37:42;;;;;;;7.40;2.33;;;14.60;99.90;;;;;;4957685;28;20058;-59
2022/10/16 08:40:18;;;;;;;6.00;2.58;;;14.60;99.90;;;;;;4957128;28;20067;-59
2022/10/16 08:42:54;;;;;;;6.85;2.08;;;14.60;99.90;;;;;;4957383;28;20558;-59
2022/10/16 08:45:42;;;;;;;7.78;2.58;;;14.60;99.90;;;;;;4956009;28;20137;-59
2022/10/16 08:48:17;;;;;;;5.43;2.35;;;14.70;99.90;;;;;;4954232;28;20050;-58
2022/10/16 08:50:44;;;;;;;9.40;2.63;;;14.80;99.90;;;;;;4956551;28;20070;-59
2022/10/16 08:53:24;;;;;;;10.10;1.90;;;14.80;99.90;;;;;;4954269;28;20090;-59
2022/10/16 08:55:51;;;;;;;11.13;2.17;;;14.90;99.90;;;;;;4955566;28;20046;-60
2022/10/16 08:58:23;;;;;;;6.75;2.00;;;15.00;99.90;;;;;;4952502;28;20172;-59
2022/10/16 09:00:53;;;;;;;6.60;1.92;;;15.00;99.90;;;;;;4954375;28;20119;-57
2022/10/16 09:03:40;;;;;;;7.75;1.98;;;15.00;99.90;;;;;;4956017;28;20051;-59
2022/10/16 09:06:28;;;;;;;5.35;1.52;;;14.90;99.90;;;;;;4956776;28;20403;-59
2022/10/16 09:09:10;;;;;;;6.57;1.77;;;14.90;99.90;;;;;;4956285;28;20490;-59
2022/10/16 09:11:42;;;;;;;6.43;2.10;;;14.90;99.90;;;;;;4953567;28;20638;-60
2022/10/16 09:14:36;;;;;;;6.45;2.33;;;15.00;99.90;;;;;;4954620;28;20043;-60
2022/10/16 09:17:26;;;;;;;7.13;2.13;;;15.20;99.90;;;;;;4948522;28;20035;-60
2022/10/16 09:20:14;;;;;;;7.82;1.80;;;15.30;99.90;;;;;;4922678;28;20128;-59
2022/10/16 09:22:40;;;;;;;6.85;1.70;;;15.40;99.90;;;;;;4954580;28;20057;-59
2022/10/16 09:25:18;;;;;;;8.93;2.20;;;15.40;99.90;;;;;;4952898;28;20490;-59
2022/10/16 09:27:47;;;;;;;7.90;1.92;;;15.40;99.90;;;;;;4955451;28;20047;-60
2022/10/16 09:30:19;;;;;;;7.72;2.10;;;15.40;99.90;;;;;;4956963;28;20091;-59
2022/10/16 09:32:47;;;;;;;6.38;1.77;;;15.40;99.90;;;;;;4957723;28;20381;-60
2022/10/16 09:35:38;;;;;;;7.90;1.70;;;15.50;99.90;;;;;;4950459;28;20378;-60
2022/10/16 09:38:05;;;;;;;8.80;1.92;;;15.50;99.90;;;;;;4944373;28;20051;-60
2022/10/16 09:40:36;;;;;;;6.25;1.75;;;15.40;99.90;;;;;;4954734;28;20097;-60
2022/10/16 09:43:14;;;;;;;10.07;2.00;;;15.50;99.90;;;;;;4955585;28;20073;-60
2022/10/16 09:45:40;;;;;;;9.20;1.83;;;15.60;99.90;;;;;;4957265;28;20062;-59
2022/10/16 09:48:13;;;;;;;8.93;2.20;;;15.80;99.90;;;;;;4952745;28;20428;-59
2022/10/16 09:50:39;;;;;;;8.65;1.75;;;16.00;99.90;;;;;;4953733;28;20446;-60
2022/10/16 09:53:13;;;;;;;10.13;2.30;;;16.20;99.90;;;;;;4953285;28;20086;-60
2022/10/16 09:55:53;;;;;;;9.38;2.33;;;16.40;99.90;;;;;;4953406;28;20054;-60
2022/10/16 09:58:23;;;;;;;8.63;1.80;;;16.50;99.90;;;;;;4955549;28;20123;-59
2022/10/16 10:00:53;;;;;;;12.80;2.83;;;16.60;99.90;;;;;;4951481;28;20464;-60
2022/10/16 10:03:40;;;;;;;13.77;2.65;;;16.60;99.90;;;;;;4955100;28;20043;-59
2022/10/16 10:06:34;;;;;;;12.68;2.75;;;16.70;99.90;;;;;;4952805;28;20039;-59
2022/10/16 10:09:16;;;;;;;12.68;2.38;;;16.80;99.90;;;;;;4954210;28;20126;-59
2022/10/16 10:11:48;;;;;;;11.98;2.78;;;16.70;99.90;;;;;;4954340;28;20081;-60
2022/10/16 10:14:36;;;;;;;12.15;2.70;;;16.60;99.90;;;;;;4955133;28;20065;-59
2022/10/16 10:17:22;;;;;;;12.55;2.28;;;16.60;99.90;;;;;;4953209;28;20249;-59
2022/10/16 10:19:51;;;;;;;11.98;3.13;;;16.60;99.90;;;;;;4954784;28;20122;-59
2022/10/16 10:22:26;;;;;;;13.02;2.42;;;16.80;99.90;;;;;;4953171;28;20035;-59
2022/10/16 10:25:10;;;;;;;13.50;2.92;;;17.00;99.90;;;;;;4954740;28;20122;-59
2022/10/16 10:28:04;;;;;;;11.93;2.15;;;17.20;99.90;;;;;;4957161;28;20505;-60
2022/10/16 10:31:02;;;;;;;14.00;2.33;;;17.40;99.90;;;;;;4961880;28;20081;-59
2022/10/16 10:33:48;;;;;;;13.52;2.50;;;17.50;99.90;;;;;;4951673;28;20194;-59
2022/10/16 10:36:17;;;;;;;11.13;2.50;;;17.50;99.90;;;;;;4952212;28;20086;-60
2022/10/16 10:39:14;;;;;;;10.82;2.50;;;17.70;99.90;;;;;;4947627;28;20129;-60
2022/10/16 10:42:17;;;;;;;18.75;3.00;;;17.80;99.90;;;;;;4959434;28;20409;-60
2022/10/16 10:44:54;;;;;;;10.18;2.08;;;17.90;99.90;;;;;;4952545;28;21381;-59
2022/10/16 10:47:48;;;;;;;10.18;2.35;;;17.90;99.90;;;;;;4954464;28;20082;-60
2022/10/16 10:50:13;;;;;;;13.88;2.33;;;18.00;99.90;;;;;;4954253;28;20069;-59
2022/10/16 10:52:57;;;;;;;15.35;2.70;;;18.00;99.90;;;;;;4956285;28;20051;-60
2022/10/16 10:55:33;;;;;;;12.18;2.67;;;17.90;99.90;;;;;;4956706;28;20629;-60
2022/10/16 10:58:18;;;;;;;11.00;2.15;;;17.90;99.90;;;;;;4959839;28;20146;-60
2022/10/16 11:00:56;;;;;;;12.57;2.58;;;17.90;99.90;;;;;;4953993;28;20050;-60
2022/10/16 11:03:41;;;;;;;13.85;2.22;;;18.00;99.90;;;;;;4955519;28;20053;-59
2022/10/16 11:06:12;;;;;;;15.98;2.15;;;18.00;99.90;;;;;;4954606;28;20101;-59
2022/10/16 11:08:49;;;;;;;10.98;2.40;;;18.10;99.90;;;;;;4954084;28;20043;-60
2022/10/16 11:11:25;;;;;;;21.95;2.50;;;18.20;99.90;;;;;;4953375;28;20039;-59
2022/10/16 11:14:03;;;;;;;12.85;2.25;;;18.40;99.90;;;;;;4952966;28;20405;-59
2022/10/16 11:16:38;;;;;;;12.85;2.42;;;18.50;99.90;;;;;;4953073;28;20039;-59
2022/10/16 11:19:39;;;;;;;9.95;2.47;;;18.50;99.90;;;;;;4954252;28;20078;-60
2022/10/16 11:22:27;;;;;;;14.43;2.60;;;18.50;99.90;;;;;;4945254;28;20050;-60
2022/10/16 11:24:59;;;;;;;16.63;2.50;;;18.50;99.90;;;;;;4952133;28;20523;-60
2022/10/16 11:27:40;;;;;;;12.43;2.42;;;18.60;99.90;;;;;;4954205;28;20437;-60
2022/10/16 11:30:34;;;;;;;8.68;1.75;;;18.80;99.80;;;;;;4953532;28;20139;-60
2022/10/16 11:33:08;;;;;;;14.60;2.80;;;19.00;99.40;;;;;;4952267;28;20054;-59
2022/10/16 11:35:55;;;;;;;11.20;2.55;;;19.20;99.90;;;;;;4952662;28;20401;-60
2022/10/16 11:38:29;;;;;;;15.57;2.60;;;19.40;98.80;;;;;;4955466;28;20047;-60
2022/10/16 11:41:04;;;;;;;11.60;2.50;;;19.30;97.50;;;;;;4952154;28;20044;-60
2022/10/16 11:43:40;;;;;;;9.95;1.90;;;19.10;96.50;;;;;;4949517;28;20045;-60
2022/10/16 11:46:14;;;;;;;13.07;2.63;;;19.00;96.00;;;;;;4953065;28;20055;-59
2022/10/16 11:48:49;;;;;;;17.30;2.58;;;19.00;96.30;;;;;;4951002;28;20051;-59
2022/10/16 11:51:40;;;;;;;11.38;2.00;;;19.00;96.00;;;;;;4952406;28;20054;-59
2022/10/16 11:54:48;;;;;;;15.45;2.17;;;19.00;95.90;;;;;;4951868;28;20089;-60
2022/10/16 11:57:47;;;;;;;12.40;2.58;;;18.90;96.10;;;;;;4953450;28;20086;-60
2022/10/16 12:00:24;;;;;;;11.18;2.20;;;18.90;96.30;;;;;;4955489;28;20042;-60
2022/10/16 12:03:13;;;;;;;11.23;2.55;;;19.00;96.70;;;;;;4957497;28;20065;-59
2022/10/16 12:05:42;;;;;;;10.23;2.28;;;19.10;96.90;;;;;;4955429;28;20408;-60
2022/10/16 12:08:12;;;;;;;14.23;2.42;;;19.20;96.50;;;;;;4955821;28;20054;-60
2022/10/16 12:10:40;;;;;;;10.45;2.38;;;19.30;96.70;;;;;;4958021;28;20438;-60
2022/10/16 12:13:35;;;;;;;12.63;2.50;;;19.40;96.20;;;;;;4952410;28;20378;-59
2022/10/16 12:16:06;;;;;;;11.48;2.53;;;19.30;95.60;;;;;;4956647;28;20129;-59
2022/10/16 12:18:32;;;;;;;9.57;2.00;;;19.00;95.60;;;;;;4962233;28;20118;-59
2022/10/16 12:21:00;;;;;;;13.20;2.45;;;18.70;95.50;;;;;;4957552;28;20047;-60
2022/10/16 12:23:26;;;;;;;11.70;2.10;;;18.50;95.60;;;;;;4955384;28;20453;-60
2022/10/16 12:25:58;;;;;;;12.95;2.30;;;18.30;95.70;;;;;;4952465;28;20083;-60
2022/10/16 12:28:28;;;;;;;12.80;2.28;;;18.10;95.80;;;;;;4955680;28;20094;-60
2022/10/16 12:31:00;;;;;;;10.40;1.80;;;17.90;95.70;;;;;;4958235;28;20055;-60
2022/10/16 12:33:29;;;;;;;13.27;2.60;;;17.70;95.50;;;;;;4957755;28;20104;-60
2022/10/16 12:35:56;;;;;;;10.73;2.45;;;17.70;95.90;;;;;;4956056;28;20517;-60
2022/10/16 12:38:30;;;;;;;19.70;3.05;;;17.70;95.90;;;;;;4952671;28;20057;-59
2022/10/16 12:41:12;;;;;;;12.90;2.25;;;17.90;96.30;;;;;;4955607;28;20054;-60
2022/10/16 12:43:45;;;;;;;12.48;2.45;;;18.10;96.60;;;;;;4956577;28;20153;-59
2022/10/16 12:46:14;;;;;;;14.98;2.55;;;18.30;96.10;;;;;;4972130;28;20047;-59
2022/10/16 12:48:43;;;;;;;12.45;2.75;;;18.40;95.50;;;;;;4970635;28;20059;-60
2022/10/16 12:51:25;;;;;;;16.85;3.08;;;18.50;95.50;;;;;;4953971;28;20057;-59
2022/10/16 12:54:10;;;;;;;14.18;2.30;;;18.60;95.80;;;;;;4956276;28;20043;-60
2022/10/16 12:57:14;;;;;;;10.77;2.13;;;18.70;95.40;;;;;;4953707;28;20161;-59
2022/10/16 12:59:39;;;;;;;10.55;2.25;;;18.70;95.40;;;;;;4957166;28;20059;-60
2022/10/16 13:02:34;;;;;;;12.63;2.03;;;18.60;95.20;;;;;;4954389;28;20050;-60
2022/10/16 13:05:26;;;;;;;13.90;2.40;;;18.50;95.40;;;;;;4952733;28;20126;-59
2022/10/16 13:08:07;;;;;;;15.45;2.58;;;18.30;95.10;;;;;;4955524;28;20069;-60
2022/10/16 13:10:55;;;;;;;11.82;2.33;;;18.10;95.30;;;;;;4956085;28;20043;-60
2022/10/16 13:13:24;;;;;;;7.82;1.88;;;18.00;95.40;;;;;;4952714;28;20379;-60